Language selection

My Weather Profile Weather Topics  | 

Dixon Entrance West - east of Langara: Past 24 Hour Conditions

 

South Hecate Strait - 46185

01:00 PM PST 03 December 2022Buoy position: 52.53N 130.09W
Disclaimer

This table is a summary of hourly weather conditions for the past 24 hours.
Please note that these observations might not always be representative of weather conditions over their associated marine area.

Date / Time
(PST)
Wind(knots) Wave height(m) Wave period(s) Pressure(kPa) Air tempC) Water tempC)
03 December 2022
13:00 N 8 gust 12 1.4 4.4 102.5 2 8
12:00 NNE 12 gust 18 1.5 4.7 102.5 2 8
11:00 N 13 gust 18 1.4 4.8 102.5 2 8
10:00 N 16 gust 21 1.4 6.0 102.4 2 8
9:00 N 12 gust 15 1.3 5.1 102.4 1 8
8:00 N 15 gust 18 1.3 9.5 102.3 2 8
7:00 N 15 gust 18 1.3 4.8 102.2 1 8
6:00 N 17 gust 22 1.4 9.8 102.2 1 8
5:00 N 17 gust 22 1.7 9.8 102.2 1 8
4:00 N 18 gust 22 1.7 9.1 102.2 1 8
3:00 N 16 gust 20 1.8 10.2 102.2 1 8
2:00 NNE 18 gust 22 1.7 10.2 102.1 1 8
1:00 NNE 20 gust 24 1.8 5.6 102.1 1 8
0:00 N 19 gust 23 2.0 10.2 102.0 1 8
02 December 2022
23:00 N 18 gust 22 2.1 5.8 102.0 1 8
22:00 N 17 gust 21 2.1 9.8 101.9 1 8
21:00 NNE 16 gust 20 2.0 10.2 101.9 1 8
20:00 NNE 19 gust 23 2.1 6.4 101.8 0 8
19:00 NNE 19 gust 23 2.2 6.1 101.8 1 8
18:00 NNE 18 gust 23 2.0 6.2 101.8 1 8
17:00 NNE 17 gust 21 2.0 8.3 101.7 1 8
16:00 NNE 18 gust 22 2.0 5.8 101.7 1 8
15:00 NNE 18 gust 22 2.1 5.3 101.7 1 8
14:00 NNE 18 gust 22 2.2 5.6 101.7 2 8
13:00 NNE 19 gust 24 2.0 5.2 101.7 2 8

Zoom-in to make a selection

Map of Pacific - North Coast marine weather areas Middle Nomad - 46004 South Nomad - 46036 Dixon Entrance Central - 46145 South Moresby - 46147 Nanakwa Shoal - 46181 North Hecate Strait - 46183 North Nomad - 46184 South Hecate Strait - 46185 West Sea Otter - 46204 West Dixon Entrance - 46205 East Dellwood - 46207 West Moresby - 46208 Sartine Island Cape St.James Kindakun Rocks Langara Island Masset Municipal Airport Rose Spit Sandspit Airport Bella Bella Airport Bella Coola Airport Bonilla Island Cathedral Point Cumshewa Island Grey Islet Holland Rock Lucy Islands Lightstation Prince Rupert Airport
Legend:
buoy Buoy
land station Land Station

Pacific - North Coast Area

Another Region

What we are doing

Date modified: